Time;durP1;ratioP1;P1;durP2;ratioP2;P2;SDS_P1;SDS_P2;PMS_P1;PMS_P2;Temp;Humidity;BMP_temperature;BMP_pressure;BME280_temperature;BME280_humidity;BME280_pressure;Samples;Min_cycle;Max_cycle;Signal;HPM_P1;HPM_P2
2024/03/06 00:01:23;;;;;;;19.17;13.07;;;5.90;96.80;;;;;;6271519;22;20011;-75
2024/03/06 00:04:09;;;;;;;20.85;14.45;;;5.80;96.80;;;;;;6272189;22;20460;-76
2024/03/06 00:06:57;;;;;;;21.73;15.05;;;5.80;96.90;;;;;;6270624;22;20383;-75
2024/03/06 00:09:44;;;;;;;24.15;16.45;;;5.70;96.90;;;;;;6271521;22;20019;-76
2024/03/06 00:12:30;;;;;;;22.25;15.63;;;5.80;97.00;;;;;;6272042;22;20008;-74
2024/03/06 00:15:16;;;;;;;22.42;14.93;;;5.80;97.00;;;;;;6271737;22;20014;-76
2024/03/06 00:18:03;;;;;;;23.00;15.02;;;5.70;97.10;;;;;;6272010;22;20344;-76
2024/03/06 00:20:49;;;;;;;23.08;14.35;;;5.70;97.10;;;;;;6272816;22;20337;-76
2024/03/06 00:23:37;;;;;;;23.10;14.57;;;5.70;97.10;;;;;;6271067;22;20356;-77
2024/03/06 00:26:23;;;;;;;20.20;13.80;;;5.70;97.20;;;;;;6272711;22;20008;-76
2024/03/06 00:29:09;;;;;;;22.52;13.52;;;5.70;97.20;;;;;;6272182;22;20003;-75
2024/03/06 00:31:55;;;;;;;18.67;13.23;;;5.70;97.30;;;;;;6272827;22;20011;-75
2024/03/06 00:34:41;;;;;;;19.40;13.00;;;5.70;97.20;;;;;;6272058;22;20039;-76
2024/03/06 00:37:27;;;;;;;23.25;14.35;;;5.70;97.20;;;;;;6270343;22;20341;-75
2024/03/06 00:40:13;;;;;;;21.95;14.70;;;5.60;97.30;;;;;;6272902;22;20012;-76
2024/03/06 00:42:59;;;;;;;24.73;15.27;;;5.60;97.30;;;;;;6271088;22;20023;-75
2024/03/06 00:45:45;;;;;;;23.83;15.02;;;5.60;97.40;;;;;;6271264;22;20008;-75
2024/03/06 00:48:31;;;;;;;22.15;13.30;;;5.60;97.50;;;;;;6270871;22;20011;-75
2024/03/06 00:51:17;;;;;;;25.38;15.32;;;5.60;97.50;;;;;;6270502;22;20046;-75
2024/03/06 00:54:04;;;;;;;21.17;14.65;;;5.60;97.50;;;;;;6271908;22;20028;-75
2024/03/06 00:56:50;;;;;;;21.13;13.57;;;5.60;97.60;;;;;;6271185;22;20444;-75
2024/03/06 00:59:36;;;;;;;22.83;13.98;;;5.60;97.60;;;;;;6270671;22;20003;-78
2024/03/06 01:02:22;;;;;;;20.42;13.95;;;5.60;97.60;;;;;;6270419;22;20019;-75
2024/03/06 01:05:09;;;;;;;19.45;13.07;;;5.50;97.60;;;;;;6270618;22;20044;-75
2024/03/06 01:07:56;;;;;;;18.88;12.93;;;5.60;97.70;;;;;;6269712;22;20008;-75
2024/03/06 01:10:42;;;;;;;18.65;13.10;;;5.60;97.70;;;;;;6272211;22;20031;-75
2024/03/06 01:13:28;;;;;;;18.85;13.65;;;5.60;97.70;;;;;;6269700;22;20039;-75
2024/03/06 01:16:14;;;;;;;22.23;14.80;;;5.60;97.80;;;;;;6269778;22;20018;-75
2024/03/06 01:19:00;;;;;;;22.30;14.55;;;5.50;97.70;;;;;;6270316;22;20004;-75
2024/03/06 01:21:46;;;;;;;17.40;12.10;;;5.50;97.80;;;;;;6269732;22;20471;-75
2024/03/06 01:24:32;;;;;;;22.50;14.98;;;5.50;97.80;;;;;;6270339;22;20531;-75
2024/03/06 01:27:18;;;;;;;22.08;13.90;;;5.50;97.90;;;;;;6269614;22;20012;-75
2024/03/06 01:30:04;;;;;;;20.33;14.90;;;5.50;97.90;;;;;;6247003;22;20022;-76
2024/03/06 01:32:50;;;;;;;20.17;13.15;;;5.50;98.00;;;;;;6269314;22;20015;-74
2024/03/06 01:35:36;;;;;;;21.23;13.95;;;5.50;98.00;;;;;;6271850;22;20055;-74
2024/03/06 01:38:22;;;;;;;17.50;12.27;;;5.50;98.00;;;;;;6269818;22;20162;-74
2024/03/06 01:41:08;;;;;;;20.98;14.00;;;5.50;98.00;;;;;;6269746;22;20008;-73
2024/03/06 01:43:54;;;;;;;21.15;13.02;;;5.50;98.10;;;;;;6268819;22;20045;-73
2024/03/06 01:46:40;;;;;;;22.02;13.57;;;5.50;98.10;;;;;;6269727;22;20007;-74
2024/03/06 01:49:27;;;;;;;20.55;13.15;;;5.40;98.10;;;;;;6269404;22;20065;-73
2024/03/06 01:52:15;;;;;;;18.98;13.00;;;5.40;98.20;;;;;;6271695;22;20038;-76
2024/03/06 01:55:01;;;;;;;20.20;13.82;;;5.50;98.20;;;;;;6271370;22;20073;-76
2024/03/06 01:57:47;;;;;;;21.08;13.82;;;5.40;98.20;;;;;;6269585;22;20026;-75
2024/03/06 02:00:34;;;;;;;23.95;14.32;;;5.40;98.30;;;;;;6270714;22;20011;-75
2024/03/06 02:03:20;;;;;;;23.50;14.35;;;5.40;98.30;;;;;;6295281;22;20072;-74
2024/03/06 02:06:07;;;;;;;22.05;13.57;;;5.40;98.30;;;;;;6290639;22;20233;-76
2024/03/06 02:08:53;;;;;;;21.50;15.00;;;5.30;98.40;;;;;;6274825;22;20467;-77
2024/03/06 02:11:39;;;;;;;21.60;14.20;;;5.30;98.40;;;;;;6278117;22;20019;-76
2024/03/06 02:14:26;;;;;;;24.30;14.20;;;5.30;98.50;;;;;;6270877;22;20042;-76
2024/03/06 02:17:12;;;;;;;19.67;13.48;;;5.30;98.50;;;;;;6247776;22;20012;-77
2024/03/06 02:19:58;;;;;;;20.30;11.98;;;5.30;98.50;;;;;;6268999;22;20004;-77
2024/03/06 02:22:44;;;;;;;19.55;12.43;;;5.30;98.60;;;;;;6250311;22;20008;-76
2024/03/06 02:25:30;;;;;;;18.55;13.07;;;5.30;98.60;;;;;;6271784;22;20440;-78
2024/03/06 02:28:16;;;;;;;19.48;13.63;;;5.30;98.70;;;;;;6271132;22;20019;-79
2024/03/06 02:31:03;;;;;;;19.50;12.73;;;5.30;98.70;;;;;;6272495;22;20004;-78
2024/03/06 02:33:50;;;;;;;18.70;12.85;;;5.20;98.70;;;;;;6272486;22;20300;-76
2024/03/06 02:36:36;;;;;;;22.75;13.93;;;5.20;98.70;;;;;;6269732;22;20012;-79
2024/03/06 02:39:22;;;;;;;19.70;12.50;;;5.20;98.70;;;;;;6270084;22;20061;-77
2024/03/06 02:42:08;;;;;;;20.63;12.77;;;5.20;98.80;;;;;;6270712;22;20010;-78
2024/03/06 02:44:54;;;;;;;19.13;14.10;;;5.20;98.80;;;;;;6271857;22;20034;-74
2024/03/06 02:47:40;;;;;;;20.05;13.30;;;5.20;98.90;;;;;;6270240;22;20471;-72
2024/03/06 02:50:26;;;;;;;21.23;13.57;;;5.20;98.90;;;;;;6271853;22;20012;-71
2024/03/06 02:53:12;;;;;;;19.35;12.57;;;5.20;98.90;;;;;;6272423;22;20039;-71
2024/03/06 02:55:58;;;;;;;22.15;15.50;;;5.20;99.00;;;;;;6274278;22;20440;-71
2024/03/06 02:58:44;;;;;;;21.85;13.95;;;5.20;99.00;;;;;;6271289;22;20019;-71
2024/03/06 03:01:30;;;;;;;18.85;13.32;;;5.10;99.10;;;;;;6273435;22;20058;-71
2024/03/06 03:04:16;;;;;;;21.17;13.93;;;5.10;99.10;;;;;;6271118;22;20016;-70
2024/03/06 03:07:03;;;;;;;18.27;12.57;;;5.10;99.10;;;;;;6273697;22;20379;-71
2024/03/06 03:09:49;;;;;;;19.45;13.27;;;5.20;99.20;;;;;;6271044;22;20375;-71
2024/03/06 03:12:35;;;;;;;20.80;13.18;;;5.20;99.10;;;;;;6272042;22;20007;-71
2024/03/06 03:15:21;;;;;;;19.10;12.52;;;5.10;99.10;;;;;;6270769;22;20023;-71
2024/03/06 03:18:07;;;;;;;19.67;14.20;;;5.10;99.20;;;;;;6271438;22;20012;-70
2024/03/06 03:20:52;;;;;;;19.88;14.52;;;5.10;99.20;;;;;;6272043;22;20012;-70
2024/03/06 03:23:39;;;;;;;16.80;12.77;;;5.10;99.30;;;;;;6271211;22;20020;-70
2024/03/06 03:26:25;;;;;;;18.35;13.38;;;5.00;99.50;;;;;;6272089;22;20018;-68
2024/03/06 03:29:11;;;;;;;18.05;13.10;;;5.00;99.30;;;;;;6271142;22;20016;-70
2024/03/06 03:31:57;;;;;;;21.27;13.82;;;5.00;99.40;;;;;;6270871;22;20066;-70
2024/03/06 03:34:43;;;;;;;22.70;14.85;;;5.00;99.40;;;;;;6269239;22;20337;-69
2024/03/06 03:37:29;;;;;;;18.48;12.73;;;5.00;99.40;;;;;;6271023;22;20012;-69
2024/03/06 03:40:15;;;;;;;17.98;12.70;;;5.00;99.40;;;;;;6272926;22;20008;-70
2024/03/06 03:43:06;;;;;;;21.77;12.18;;;5.00;99.50;;;;;;6271276;22;20042;-70
2024/03/06 03:45:52;;;;;;;18.98;13.88;;;5.00;99.50;;;;;;6272187;22;20087;-70
2024/03/06 03:48:38;;;;;;;20.42;13.23;;;5.00;99.50;;;;;;6271617;22;20011;-71
2024/03/06 03:51:24;;;;;;;21.08;13.63;;;5.00;99.60;;;;;;6271727;22;20004;-70
2024/03/06 03:54:10;;;;;;;21.13;13.15;;;4.90;99.60;;;;;;6270420;22;20008;-71
2024/03/06 03:56:56;;;;;;;21.90;13.38;;;4.90;99.60;;;;;;6270093;22;20020;-70
2024/03/06 03:59:42;;;;;;;21.73;13.82;;;4.90;99.70;;;;;;6271205;22;20042;-71
2024/03/06 04:02:27;;;;;;;22.00;15.07;;;4.90;99.70;;;;;;6271383;22;20004;-61
2024/03/06 04:05:14;;;;;;;23.65;15.07;;;4.90;99.70;;;;;;6271998;22;20448;-64
2024/03/06 04:08:00;;;;;;;23.55;13.60;;;4.90;99.80;;;;;;6271963;22;20007;-61
2024/03/06 04:10:46;;;;;;;19.02;13.13;;;4.90;99.80;;;;;;6271171;22;20014;-61
2024/03/06 04:13:38;;;;;;;21.88;14.43;;;4.90;99.80;;;;;;6271742;22;20007;-61
2024/03/06 04:16:23;;;;;;;21.95;14.40;;;4.90;99.90;;;;;;6272662;22;20011;-61
2024/03/06 04:19:09;;;;;;;19.95;13.05;;;4.90;99.90;;;;;;6271713;22;20015;-61
2024/03/06 04:21:55;;;;;;;22.33;14.38;;;4.80;99.90;;;;;;6271923;22;20007;-60
2024/03/06 04:24:42;;;;;;;23.25;14.20;;;4.80;99.90;;;;;;6272993;22;20026;-60
2024/03/06 04:27:28;;;;;;;25.00;15.23;;;4.80;99.90;;;;;;6271849;22;20015;-61
2024/03/06 04:30:14;;;;;;;21.85;14.02;;;4.80;99.90;;;;;;6272442;22;20004;-60
2024/03/06 04:33:00;;;;;;;22.83;13.65;;;4.90;99.90;;;;;;6271070;22;20008;-60
2024/03/06 04:35:47;;;;;;;21.50;13.88;;;4.80;99.90;;;;;;6272634;22;20008;-61
2024/03/06 04:38:32;;;;;;;21.38;13.63;;;4.80;99.90;;;;;;6271347;22;20012;-60
2024/03/06 04:41:19;;;;;;;18.67;13.40;;;4.80;99.90;;;;;;6271888;22;20046;-61
2024/03/06 04:44:05;;;;;;;20.05;14.57;;;4.70;99.90;;;;;;6273159;22;20015;-61
2024/03/06 04:46:51;;;;;;;19.98;13.25;;;4.70;99.90;;;;;;6272836;22;20054;-59
2024/03/06 04:49:38;;;;;;;22.48;13.98;;;4.70;99.90;;;;;;6270396;22;20065;-60
2024/03/06 04:52:24;;;;;;;20.40;13.70;;;4.70;99.90;;;;;;6271003;22;20031;-60
2024/03/06 04:55:11;;;;;;;23.13;14.13;;;4.70;99.90;;;;;;6271376;22;20008;-60
2024/03/06 04:57:57;;;;;;;23.42;13.77;;;4.70;99.90;;;;;;6271015;22;20486;-60
2024/03/06 05:00:42;;;;;;;21.90;13.40;;;4.70;99.90;;;;;;6269939;22;20460;-61
2024/03/06 05:03:28;;;;;;;22.65;16.08;;;4.70;99.90;;;;;;6269606;22;20023;-60
2024/03/06 05:06:14;;;;;;;22.73;14.52;;;4.60;99.90;;;;;;6270163;22;20026;-61
2024/03/06 05:09:01;;;;;;;21.23;14.05;;;4.60;99.90;;;;;;6269063;22;20318;-61
2024/03/06 05:11:50;;;;;;;19.80;12.55;;;4.60;99.90;;;;;;6270099;22;20016;-63
2024/03/06 05:14:36;;;;;;;18.80;13.60;;;4.60;99.90;;;;;;6273056;22;20011;-63
2024/03/06 05:17:23;;;;;;;22.35;13.52;;;4.60;99.90;;;;;;6271505;22;20031;-61
2024/03/06 05:20:09;;;;;;;18.65;13.02;;;4.60;99.90;;;;;;6271671;22;20012;-61
2024/03/06 05:22:55;;;;;;;23.02;14.65;;;4.50;99.90;;;;;;6270821;22;20093;-60
2024/03/06 05:25:41;;;;;;;22.42;14.07;;;4.50;99.90;;;;;;6271053;22;20012;-61
2024/03/06 05:28:27;;;;;;;19.40;13.18;;;4.50;99.90;;;;;;6271252;22;20245;-61
2024/03/06 05:31:21;;;;;;;19.15;12.43;;;4.50;99.90;;;;;;6270417;22;20428;-60
2024/03/06 05:34:07;;;;;;;21.00;15.38;;;4.50;99.90;;;;;;6272501;22;20012;-60
2024/03/06 05:36:53;;;;;;;20.58;13.52;;;4.50;99.90;;;;;;6270837;22;20086;-60
2024/03/06 05:39:38;;;;;;;23.38;16.38;;;4.50;99.90;;;;;;6270409;22;20383;-60
2024/03/06 05:42:24;;;;;;;26.88;16.63;;;4.50;99.90;;;;;;6249922;22;20014;-61
2024/03/06 05:45:10;;;;;;;24.02;14.98;;;4.50;99.90;;;;;;6270490;22;20133;-60
2024/03/06 05:47:56;;;;;;;24.10;15.18;;;4.50;99.90;;;;;;6269709;22;20309;-60
2024/03/06 05:50:42;;;;;;;22.80;15.00;;;4.40;99.90;;;;;;6270546;22;20035;-60
2024/03/06 05:53:28;;;;;;;22.17;14.40;;;4.40;99.90;;;;;;6270363;22;20014;-61
2024/03/06 05:56:14;;;;;;;21.20;15.50;;;4.30;99.90;;;;;;6269927;22;20026;-60
2024/03/06 05:59:04;;;;;;;20.92;15.25;;;4.30;99.90;;;;;;6270613;22;20018;-59
2024/03/06 06:01:50;;;;;;;23.83;16.50;;;4.30;99.90;;;;;;6271204;22;20086;-60
2024/03/06 06:04:36;;;;;;;22.88;14.57;;;4.20;99.90;;;;;;6269952;22;20027;-63
2024/03/06 06:07:22;;;;;;;26.10;16.90;;;4.20;99.90;;;;;;6270450;22;20008;-62
2024/03/06 06:10:09;;;;;;;30.17;17.05;;;4.20;99.90;;;;;;6271208;22;20087;-61
2024/03/06 06:12:56;;;;;;;29.13;17.73;;;4.10;99.90;;;;;;6270524;22;20468;-60
2024/03/06 06:15:42;;;;;;;24.23;16.40;;;4.10;99.90;;;;;;6271301;22;20077;-61
2024/03/06 06:18:28;;;;;;;28.65;17.40;;;4.10;99.90;;;;;;6271105;22;20291;-61
2024/03/06 06:21:14;;;;;;;26.80;17.30;;;4.10;99.90;;;;;;6272849;22;20039;-62
2024/03/06 06:24:00;;;;;;;24.67;16.20;;;4.10;99.90;;;;;;6268374;22;20418;-61
2024/03/06 06:26:46;;;;;;;24.55;15.65;;;4.10;99.90;;;;;;6271997;22;20004;-62
2024/03/06 06:29:31;;;;;;;25.17;16.35;;;4.10;99.90;;;;;;6274213;22;20019;-62
2024/03/06 06:32:18;;;;;;;22.75;15.60;;;4.10;99.90;;;;;;6273679;22;20085;-61
2024/03/06 06:35:05;;;;;;;24.42;14.98;;;4.10;99.90;;;;;;6270863;22;20008;-62
2024/03/06 06:37:51;;;;;;;26.17;16.60;;;4.10;99.90;;;;;;6271836;22;20019;-62
2024/03/06 06:40:37;;;;;;;27.35;17.73;;;4.10;99.90;;;;;;6245774;22;20310;-61
2024/03/06 06:43:23;;;;;;;23.58;16.15;;;4.20;99.90;;;;;;6267103;22;20342;-63
2024/03/06 06:46:09;;;;;;;25.83;16.55;;;4.20;99.90;;;;;;6270960;22;20096;-61
2024/03/06 06:48:55;;;;;;;27.42;17.45;;;4.20;99.90;;;;;;6271497;22;20004;-60
2024/03/06 06:51:41;;;;;;;25.23;15.93;;;4.30;99.90;;;;;;6270637;22;20011;-61
2024/03/06 06:54:27;;;;;;;27.50;16.38;;;4.30;99.90;;;;;;6272723;22;20019;-60
2024/03/06 06:57:12;;;;;;;23.92;16.25;;;4.30;99.90;;;;;;6267901;22;20103;-61
2024/03/06 07:00:10;;;;;;;26.35;15.20;;;4.30;99.90;;;;;;6272090;22;20035;-60
2024/03/06 07:02:58;;;;;;;24.13;14.98;;;4.40;99.90;;;;;;6272327;22;20348;-60
2024/03/06 07:05:44;;;;;;;22.88;16.08;;;4.40;99.90;;;;;;6273776;22;20037;-61
2024/03/06 07:08:30;;;;;;;27.73;16.27;;;4.40;99.90;;;;;;6272270;22;20513;-72
2024/03/06 07:11:19;;;;;;;26.42;16.77;;;4.40;99.90;;;;;;6271993;22;20134;-72
2024/03/06 07:14:05;;;;;;;23.08;15.20;;;4.50;99.90;;;;;;6273435;22;20008;-76
2024/03/06 07:16:51;;;;;;;28.52;16.55;;;4.50;99.90;;;;;;6272763;22;20008;-73
2024/03/06 07:19:37;;;;;;;23.25;15.18;;;4.60;99.90;;;;;;6272256;22;20475;-73
2024/03/06 07:22:23;;;;;;;24.52;15.27;;;4.60;99.90;;;;;;6272747;22;20444;-74
2024/03/06 07:25:09;;;;;;;25.13;14.63;;;4.60;99.90;;;;;;6271220;22;20027;-73
2024/03/06 07:27:55;;;;;;;24.10;15.18;;;4.60;99.90;;;;;;6272688;22;20070;-74
2024/03/06 07:30:41;;;;;;;23.90;15.02;;;4.60;99.90;;;;;;6271824;22;20510;-74
2024/03/06 07:33:27;;;;;;;22.60;14.43;;;4.60;99.90;;;;;;6271966;22;20811;-73
2024/03/06 07:36:13;;;;;;;20.95;13.48;;;4.60;99.90;;;;;;6271475;22;20011;-73
2024/03/06 07:38:59;;;;;;;23.23;14.93;;;4.60;99.90;;;;;;6271516;22;20389;-73
2024/03/06 07:41:45;;;;;;;23.20;13.65;;;4.70;99.90;;;;;;6272173;22;20462;-73
2024/03/06 07:44:31;;;;;;;26.08;15.05;;;4.70;99.90;;;;;;6274145;22;20343;-73
2024/03/06 07:47:17;;;;;;;21.67;13.60;;;4.80;99.90;;;;;;6271206;22;20003;-74
2024/03/06 07:50:04;;;;;;;20.83;13.55;;;4.80;99.90;;;;;;6272137;22;20007;-74
2024/03/06 07:52:50;;;;;;;21.77;13.73;;;4.90;99.90;;;;;;6271998;22;20074;-74
2024/03/06 07:55:36;;;;;;;19.95;13.05;;;5.00;99.90;;;;;;6272777;22;20003;-76
2024/03/06 07:58:22;;;;;;;17.48;11.70;;;5.10;99.90;;;;;;6271701;22;20027;-75
2024/03/06 08:01:08;;;;;;;17.98;12.93;;;5.20;99.90;;;;;;6272260;22;20020;-74
2024/03/06 08:03:54;;;;;;;18.42;12.57;;;5.30;99.90;;;;;;6270495;22;20048;-74
2024/03/06 08:06:40;;;;;;;21.00;13.57;;;5.40;99.90;;;;;;6271442;22;20531;-79
2024/03/06 08:09:28;;;;;;;18.75;12.57;;;5.50;99.90;;;;;;6271103;22;20022;-74
2024/03/06 08:12:14;;;;;;;22.70;13.63;;;5.50;99.90;;;;;;6272976;22;20011;-75
2024/03/06 08:15:01;;;;;;;17.52;12.10;;;5.60;99.90;;;;;;6271466;22;20050;-74
2024/03/06 08:17:49;;;;;;;20.17;13.35;;;5.60;99.90;;;;;;6272033;22;20018;-76
2024/03/06 08:20:35;;;;;;;14.35;10.38;;;5.70;99.90;;;;;;6268679;22;20008;-75
2024/03/06 08:23:21;;;;;;;18.45;12.20;;;5.80;99.90;;;;;;6272818;22;20015;-75
2024/03/06 08:26:07;;;;;;;16.63;11.13;;;5.90;99.90;;;;;;6271878;22;20042;-76
2024/03/06 08:28:53;;;;;;;19.23;11.65;;;5.90;99.90;;;;;;6270911;22;20318;-76
2024/03/06 08:31:39;;;;;;;18.45;11.55;;;5.90;99.90;;;;;;6270797;22;20012;-74
2024/03/06 08:34:25;;;;;;;19.45;12.93;;;5.90;99.90;;;;;;6272053;22;20012;-77
2024/03/06 08:37:12;;;;;;;19.10;11.73;;;5.90;99.90;;;;;;6271027;22;20344;-76
2024/03/06 08:39:59;;;;;;;18.20;12.18;;;6.00;99.90;;;;;;6271916;22;20058;-76
2024/03/06 08:42:48;;;;;;;17.17;11.68;;;6.00;99.90;;;;;;6271981;22;20012;-80
2024/03/06 08:45:34;;;;;;;16.48;11.88;;;6.00;99.90;;;;;;6251089;22;20353;-78
2024/03/06 08:48:21;;;;;;;19.10;13.50;;;6.10;99.90;;;;;;6272072;22;20461;-70
2024/03/06 08:51:10;;;;;;;18.92;11.98;;;6.10;99.90;;;;;;6272595;22;20477;-70
2024/03/06 08:53:56;;;;;;;18.10;11.90;;;6.20;99.90;;;;;;6273159;22;20008;-71
2024/03/06 08:56:44;;;;;;;14.48;10.95;;;6.30;99.90;;;;;;6270410;22;20102;-70
2024/03/06 08:59:30;;;;;;;17.25;11.85;;;6.40;99.90;;;;;;6271591;22;20039;-70
2024/03/06 09:02:22;;;;;;;16.20;10.50;;;6.40;99.90;;;;;;6271265;22;20012;-69
2024/03/06 09:05:10;;;;;;;14.98;10.32;;;6.50;99.90;;;;;;6272395;22;20022;-69
2024/03/06 09:07:57;;;;;;;13.60;10.23;;;6.60;99.90;;;;;;6274071;22;20011;-69
2024/03/06 09:10:43;;;;;;;16.67;10.32;;;6.60;99.90;;;;;;6270618;22;20008;-70
2024/03/06 09:13:29;;;;;;;15.05;10.18;;;6.70;99.90;;;;;;6271216;22;20007;-70
2024/03/06 09:16:15;;;;;;;13.95;9.60;;;6.70;99.90;;;;;;6271301;22;20440;-71
2024/03/06 09:19:01;;;;;;;14.93;10.10;;;6.70;99.90;;;;;;6269494;22;20019;-72
2024/03/06 09:21:48;;;;;;;18.17;11.10;;;6.90;99.90;;;;;;6272182;22;20026;-71
2024/03/06 09:24:38;;;;;;;14.80;10.88;;;6.90;99.90;;;;;;6272741;22;20047;-71
2024/03/06 09:27:24;;;;;;;13.07;9.70;;;7.00;99.90;;;;;;6271598;22;20014;-71
2024/03/06 09:30:10;;;;;;;13.13;8.55;;;7.10;99.90;;;;;;6270941;22;20022;-70
2024/03/06 09:32:56;;;;;;;14.77;9.82;;;7.20;99.70;;;;;;6271051;22;20082;-71
2024/03/06 09:35:45;;;;;;;12.75;8.80;;;7.20;99.60;;;;;;6269915;22;20047;-70
2024/03/06 09:38:31;;;;;;;13.50;7.93;;;7.20;99.40;;;;;;6271385;22;20467;-70
2024/03/06 09:41:16;;;;;;;11.60;7.35;;;7.20;99.30;;;;;;6270826;22;20471;-72
2024/03/06 09:44:03;;;;;;;12.00;7.65;;;7.20;99.30;;;;;;6271333;22;20016;-71
2024/03/06 09:46:49;;;;;;;11.77;7.45;;;7.30;99.10;;;;;;6271636;22;20011;-69
2024/03/06 09:49:35;;;;;;;11.77;7.72;;;7.40;99.20;;;;;;6270653;22;20082;-70
2024/03/06 09:52:26;;;;;;;9.95;6.97;;;7.50;99.10;;;;;;6271204;22;20007;-70
2024/03/06 09:55:14;;;;;;;8.63;6.75;;;7.70;99.10;;;;;;6271600;22;20004;-70
2024/03/06 09:58:02;;;;;;;9.68;7.63;;;7.80;99.00;;;;;;6271803;22;20351;-70
2024/03/06 10:00:50;;;;;;;11.85;8.65;;;8.00;99.10;;;;;;6272495;22;20041;-68
2024/03/06 10:03:36;;;;;;;10.77;8.45;;;8.20;98.80;;;;;;6281826;22;20522;-70
2024/03/06 10:06:22;;;;;;;10.75;7.80;;;8.40;98.70;;;;;;6283573;22;20011;-69
2024/03/06 10:09:10;;;;;;;12.05;8.55;;;8.50;98.60;;;;;;6282792;22;20007;-71
2024/03/06 10:11:56;;;;;;;10.30;8.15;;;8.60;98.30;;;;;;6295839;22;20008;-70
2024/03/06 10:14:52;;;;;;;12.27;8.85;;;8.70;98.20;;;;;;6272064;22;20035;-68
2024/03/06 10:17:38;;;;;;;11.13;8.10;;;8.70;98.00;;;;;;6293127;22;20019;-69
2024/03/06 10:20:24;;;;;;;12.18;8.27;;;8.80;97.90;;;;;;6295822;22;20010;-70
2024/03/06 10:23:10;;;;;;;10.13;6.68;;;8.90;97.60;;;;;;6298017;22;20042;-68
2024/03/06 10:25:56;;;;;;;13.00;8.20;;;8.80;97.30;;;;;;6296044;22;20070;-70
2024/03/06 10:28:45;;;;;;;11.57;8.38;;;8.70;97.00;;;;;;6296046;22;20011;-70
2024/03/06 10:31:31;;;;;;;11.15;8.10;;;8.50;96.70;;;;;;6295870;22;20014;-71
2024/03/06 10:34:17;;;;;;;10.43;7.20;;;8.40;96.80;;;;;;6293043;22;20016;-69
2024/03/06 10:37:06;;;;;;;12.15;8.30;;;8.40;96.70;;;;;;6297087;22;20015;-70
2024/03/06 10:39:54;;;;;;;11.38;7.70;;;8.30;96.70;;;;;;6295484;22;20054;-71
2024/03/06 10:42:42;;;;;;;10.50;7.80;;;8.30;96.80;;;;;;6294351;22;20004;-69
2024/03/06 10:45:38;;;;;;;14.45;8.52;;;8.40;96.80;;;;;;6276434;22;20016;-69
2024/03/06 10:48:27;;;;;;;12.95;8.23;;;8.40;96.80;;;;;;6272672;22;20012;-72
2024/03/06 10:51:16;;;;;;;9.80;7.20;;;8.40;96.50;;;;;;6272591;22;20357;-69
2024/03/06 10:54:03;;;;;;;11.52;7.82;;;8.40;96.50;;;;;;6270078;22;20008;-71
2024/03/06 10:56:49;;;;;;;9.50;6.78;;;8.50;96.40;;;;;;6279622;22;20028;-71
2024/03/06 10:59:35;;;;;;;8.55;6.20;;;8.60;96.40;;;;;;6275080;22;20459;-73
2024/03/06 11:02:23;;;;;;;10.15;6.63;;;8.80;96.40;;;;;;6275152;22;20019;-73
2024/03/06 11:05:10;;;;;;;9.50;6.47;;;9.00;96.30;;;;;;6273489;22;20019;-74
2024/03/06 11:07:56;;;;;;;9.65;7.25;;;9.10;96.20;;;;;;6277010;22;20011;-73
2024/03/06 11:10:43;;;;;;;12.00;9.07;;;9.10;95.80;;;;;;6274932;22;20011;-71
2024/03/06 11:13:34;;;;;;;11.05;8.30;;;9.00;95.40;;;;;;6253406;22;20338;-71
2024/03/06 11:16:30;;;;;;;12.43;8.57;;;8.90;95.40;;;;;;6276137;22;20012;-73
2024/03/06 11:19:16;;;;;;;10.68;7.25;;;8.80;95.30;;;;;;6273905;22;20008;-71
2024/03/06 11:22:03;;;;;;;10.48;7.80;;;8.60;95.20;;;;;;6274423;22;20008;-70
2024/03/06 11:24:49;;;;;;;11.57;7.97;;;8.60;95.40;;;;;;6274245;22;20103;-71
2024/03/06 11:28:04;;;;;;;10.57;7.07;;;8.70;95.20;;;;;;6271823;22;20035;-71
2024/03/06 11:31:04;;;;;;;9.77;6.50;;;8.80;95.00;;;;;;6274637;22;20075;-70
2024/03/06 11:33:55;;;;;;;9.77;6.15;;;8.90;95.20;;;;;;6285029;22;20092;-71
2024/03/06 11:36:41;;;;;;;9.88;7.05;;;9.10;95.10;;;;;;6284953;22;20008;-70
2024/03/06 11:39:34;;;;;;;10.98;7.43;;;9.10;94.90;;;;;;6291546;22;20008;-72
2024/03/06 11:42:35;;;;;;;10.82;6.90;;;9.20;94.80;;;;;;6290492;22;20023;-72
2024/03/06 11:45:24;;;;;;;13.57;9.85;;;9.30;94.80;;;;;;6290828;22;20015;-72
2024/03/06 11:48:17;;;;;;;12.95;10.00;;;9.40;94.70;;;;;;6295297;22;20019;-71
2024/03/06 11:51:04;;;;;;;12.50;9.73;;;9.40;94.70;;;;;;6294566;22;20003;-72
2024/03/06 11:53:51;;;;;;;14.23;9.10;;;9.40;94.70;;;;;;6293691;22;20019;-71
2024/03/06 11:56:39;;;;;;;13.80;9.48;;;9.40;94.60;;;;;;6287712;22;20015;-73
2024/03/06 11:59:33;;;;;;;12.52;8.32;;;9.50;94.50;;;;;;6274514;22;20058;-72
2024/03/06 12:02:19;;;;;;;11.57;8.45;;;9.60;94.20;;;;;;6274240;22;20012;-70
2024/03/06 12:05:05;;;;;;;18.65;10.68;;;9.60;93.70;;;;;;6275500;22;20101;-72
2024/03/06 12:07:51;;;;;;;17.80;11.68;;;9.60;93.80;;;;;;6276958;22;20007;-72
2024/03/06 12:10:39;;;;;;;15.50;11.32;;;9.60;93.50;;;;;;6272136;22;20011;-73
2024/03/06 12:13:25;;;;;;;18.13;13.13;;;9.50;93.30;;;;;;6272870;22;20011;-73
2024/03/06 12:16:11;;;;;;;17.40;13.23;;;9.50;93.20;;;;;;6274648;22;20008;-72
2024/03/06 12:18:58;;;;;;;17.08;13.32;;;9.40;93.20;;;;;;6271776;22;20015;-73
2024/03/06 12:21:47;;;;;;;19.23;13.95;;;9.40;93.50;;;;;;6273064;22;20060;-73
2024/03/06 12:24:33;;;;;;;16.67;13.05;;;9.50;93.50;;;;;;6271747;22;20271;-73
2024/03/06 12:27:22;;;;;;;18.30;13.45;;;9.50;93.40;;;;;;6272166;22;20522;-73
2024/03/06 12:30:12;;;;;;;14.30;11.48;;;9.50;93.40;;;;;;6273403;22;20016;-73
2024/03/06 12:33:05;;;;;;;16.58;11.63;;;9.60;93.10;;;;;;6274370;22;20528;-71
2024/03/06 12:36:04;;;;;;;17.70;13.20;;;9.60;93.10;;;;;;6273119;22;20014;-72
2024/03/06 12:38:55;;;;;;;14.68;11.15;;;9.60;92.40;;;;;;6271740;22;20014;-71
2024/03/06 12:41:41;;;;;;;13.68;9.90;;;9.60;92.50;;;;;;6271016;22;20428;-72
2024/03/06 12:44:27;;;;;;;13.35;9.35;;;9.60;92.70;;;;;;6273540;22;20020;-73
2024/03/06 12:47:13;;;;;;;12.60;10.15;;;9.60;92.20;;;;;;6271065;22;20008;-72
2024/03/06 12:50:07;;;;;;;12.38;9.98;;;9.60;92.10;;;;;;6248931;22;20012;-73
2024/03/06 12:52:53;;;;;;;12.52;9.98;;;9.60;92.30;;;;;;6271071;22;20035;-72
2024/03/06 12:55:39;;;;;;;13.48;10.48;;;9.70;92.20;;;;;;6270989;22;20479;-74
2024/03/06 12:58:25;;;;;;;14.35;11.18;;;9.70;92.00;;;;;;6271589;22;20020;-72
2024/03/06 13:01:11;;;;;;;12.55;9.30;;;9.70;91.80;;;;;;6271396;22;20070;-70
2024/03/06 13:03:57;;;;;;;13.38;10.20;;;9.60;91.90;;;;;;6270897;22;20011;-69
2024/03/06 13:06:45;;;;;;;12.55;9.32;;;9.50;91.90;;;;;;6269948;22;20007;-70
2024/03/06 13:09:31;;;;;;;13.93;8.55;;;9.40;91.90;;;;;;6272793;22;20097;-69
2024/03/06 13:12:16;;;;;;;14.52;9.55;;;9.40;92.00;;;;;;6272650;22;20003;-70
2024/03/06 13:15:04;;;;;;;11.82;8.95;;;9.40;92.00;;;;;;6271637;22;20007;-71
2024/03/06 13:17:50;;;;;;;16.30;9.98;;;9.40;92.20;;;;;;6273123;22;20012;-69
2024/03/06 13:20:37;;;;;;;13.95;9.27;;;9.50;92.20;;;;;;6271601;22;20054;-70
2024/03/06 13:23:23;;;;;;;20.45;10.40;;;9.50;92.20;;;;;;6271813;22;20007;-69
2024/03/06 13:26:09;;;;;;;16.85;11.93;;;9.60;92.00;;;;;;6272556;22;20027;-69
2024/03/06 13:28:55;;;;;;;16.90;11.60;;;9.60;91.90;;;;;;6271086;22;20007;-69
2024/03/06 13:31:41;;;;;;;15.27;11.18;;;9.60;91.90;;;;;;6271201;22;20011;-71
2024/03/06 13:34:27;;;;;;;17.98;11.98;;;9.70;92.00;;;;;;6270706;22;20012;-71
2024/03/06 13:37:13;;;;;;;18.98;13.57;;;9.70;91.70;;;;;;6272917;22;20011;-69
2024/03/06 13:40:00;;;;;;;19.02;12.85;;;9.70;91.50;;;;;;6270517;22;20134;-70
2024/03/06 13:42:46;;;;;;;21.15;14.60;;;9.70;91.30;;;;;;6270588;22;20325;-70
2024/03/06 13:45:32;;;;;;;19.30;12.90;;;9.70;91.30;;;;;;6270241;22;20043;-70
2024/03/06 13:48:18;;;;;;;19.25;11.50;;;9.70;91.50;;;;;;6271424;22;20066;-70
2024/03/06 13:51:05;;;;;;;20.65;12.55;;;9.70;91.60;;;;;;6270161;22;20016;-70
2024/03/06 13:53:51;;;;;;;24.65;16.85;;;9.70;91.40;;;;;;6272589;22;20012;-69
2024/03/06 13:56:37;;;;;;;24.08;16.25;;;9.60;91.50;;;;;;6249376;22;20412;-71
2024/03/06 13:59:23;;;;;;;25.83;15.07;;;9.50;91.40;;;;;;6248853;22;20015;-71
2024/03/06 14:02:09;;;;;;;20.92;14.00;;;9.50;91.30;;;;;;6270117;22;20008;-71
2024/03/06 14:04:55;;;;;;;22.83;14.55;;;9.50;91.40;;;;;;6271243;22;20016;-70
2024/03/06 14:07:42;;;;;;;22.05;13.25;;;9.50;91.40;;;;;;6270350;22;20444;-70
2024/03/06 14:10:30;;;;;;;23.73;13.02;;;9.50;91.50;;;;;;6271188;22;20073;-70
2024/03/06 14:13:15;;;;;;;18.98;12.30;;;9.50;91.30;;;;;;6271796;22;20003;-70
2024/03/06 14:16:02;;;;;;;18.50;13.98;;;9.50;91.30;;;;;;6270539;22;20377;-60
2024/03/06 14:18:48;;;;;;;19.15;12.43;;;9.60;91.30;;;;;;6272834;22;20019;-60